Time;durP1;ratioP1;P1;durP2;ratioP2;P2;SDS_P1;SDS_P2;PMS_P1;PMS_P2;Temp;Humidity;BMP_temperature;BMP_pressure;BME280_temperature;BME280_humidity;BME280_pressure;Samples;Min_cycle;Max_cycle;Signal;HPM_P1;HPM_P2
2022/04/13 00:00:16;;;;;;;12.67;6.13;;;16.90;4.30;;;;;;5090752;28;20168;-86
2022/04/13 00:02:43;;;;;;;10.83;6.00;;;17.00;2.40;;;;;;5086363;28;20168;-88
2022/04/13 00:05:09;;;;;;;11.93;6.23;;;16.90;5.10;;;;;;5078746;28;20174;-90
2022/04/13 00:07:36;;;;;;;12.47;6.37;;;16.90;5.00;;;;;;5077627;28;20584;-90
2022/04/13 00:10:04;;;;;;;12.27;6.37;;;16.90;4.20;;;;;;5085356;28;20659;-76
2022/04/13 00:12:30;;;;;;;13.63;6.60;;;16.70;9.10;;;;;;5095876;28;20260;-88
2022/04/13 00:15:02;;;;;;;14.67;7.07;;;16.80;9.20;;;;;;5083494;28;20159;-90
2022/04/13 00:17:29;;;;;;;15.70;7.33;;;16.80;9.60;;;;;;5083322;28;20179;-89
2022/04/13 00:19:55;;;;;;;12.07;6.63;;;16.80;9.40;;;;;;5092877;28;20169;-90
2022/04/13 00:22:21;;;;;;;12.27;6.50;;;16.90;8.20;;;;;;5095720;28;20595;-86
2022/04/13 00:24:46;;;;;;;14.23;6.77;;;16.90;8.30;;;;;;5089389;28;20168;-81
2022/04/13 00:27:12;;;;;;;17.30;7.30;;;16.90;6.30;;;;;;5086721;28;20200;-77
2022/04/13 00:29:39;;;;;;;12.00;7.03;;;17.00;4.90;;;;;;5083254;28;20212;-81
2022/04/13 00:32:08;;;;;;;11.77;6.73;;;17.00;4.60;;;;;;5081888;28;20179;-84
2022/04/13 00:34:34;;;;;;;12.13;6.97;;;17.00;5.90;;;;;;5081918;28;20175;-90
2022/04/13 00:37:00;;;;;;;12.87;6.67;;;17.00;3.50;;;;;;5081610;28;20226;-82
2022/04/13 00:39:26;;;;;;;13.30;6.83;;;17.10;3.70;;;;;;5083839;28;20548;-85
2022/04/13 00:42:03;;;;;;;18.50;7.70;;;17.10;4.10;;;;;;5086425;28;20172;-85
2022/04/13 00:44:29;;;;;;;15.57;7.27;;;17.10;2.30;;;;;;5094050;28;20175;-80
2022/04/13 00:46:56;;;;;;;13.33;7.40;;;17.10;1.40;;;;;;5098167;28;20219;-78
2022/04/13 00:49:23;;;;;;;16.87;7.57;;;17.20;1.00;;;;;;5098868;28;20220;-75
2022/04/13 00:51:49;;;;;;;11.57;7.40;;;17.10;1.80;;;;;;5100289;28;20180;-78
2022/04/13 00:54:18;;;;;;;14.13;7.10;;;17.00;3.40;;;;;;5098742;28;20156;-76
2022/04/13 00:56:48;;;;;;;12.27;7.63;;;16.90;7.30;;;;;;5095905;28;20194;-88
2022/04/13 01:00:04;;;;;;;15.27;7.93;;;16.90;8.40;;;;;;5089076;28;20168;-86
2022/04/13 01:02:34;;;;;;;13.63;7.83;;;16.90;6.40;;;;;;5084237;28;20237;-88
2022/04/13 01:05:04;;;;;;;13.13;8.03;;;16.80;9.10;;;;;;5079600;28;20186;-88
2022/04/13 01:08:09;;;;;;;15.50;7.90;;;16.90;7.30;;;;;;5079436;28;20192;-88
2022/04/13 01:10:36;;;;;;;13.93;7.80;;;17.00;6.10;;;;;;5080073;28;20566;-86
2022/04/13 01:13:02;;;;;;;18.07;7.70;;;17.00;8.50;;;;;;5078071;28;20200;-86
2022/04/13 01:15:28;;;;;;;11.13;7.17;;;16.80;10.20;;;;;;5079123;28;20237;-88
2022/04/13 01:17:53;;;;;;;13.07;7.53;;;16.60;13.50;;;;;;5079555;28;20169;-89
2022/04/13 01:20:22;;;;;;;14.47;7.43;;;16.60;17.00;;;;;;5080455;28;20164;-89
2022/04/13 01:22:48;;;;;;;10.70;6.97;;;16.60;15.40;;;;;;5092978;28;20149;-79
2022/04/13 01:25:14;;;;;;;13.33;7.40;;;16.60;15.50;;;;;;5097798;28;20179;-79
2022/04/13 01:27:40;;;;;;;14.33;7.37;;;16.50;18.20;;;;;;5096226;28;20255;-83
2022/04/13 01:30:09;;;;;;;13.27;8.17;;;16.40;20.20;;;;;;5083237;28;20169;-84
2022/04/13 01:32:35;;;;;;;14.90;7.67;;;16.50;20.30;;;;;;5068416;28;20252;-80
2022/04/13 01:35:01;;;;;;;13.13;7.50;;;16.50;19.50;;;;;;5097161;28;20172;-76
2022/04/13 01:37:26;;;;;;;14.30;7.57;;;16.60;16.80;;;;;;5097522;28;20176;-87
2022/04/13 01:39:55;;;;;;;14.70;7.23;;;16.50;16.80;;;;;;5093055;28;20164;-87
2022/04/13 01:42:28;;;;;;;13.70;7.63;;;16.40;20.50;;;;;;5095116;28;20190;-75
2022/04/13 01:44:55;;;;;;;14.20;7.27;;;16.30;22.90;;;;;;5097283;28;20195;-85
2022/04/13 01:47:21;;;;;;;12.53;7.10;;;16.30;24.40;;;;;;5081654;28;20200;-88
2022/04/13 01:49:46;;;;;;;17.83;7.83;;;16.40;20.70;;;;;;5079109;28;20184;-88
2022/04/13 01:52:12;;;;;;;19.80;7.80;;;16.40;21.60;;;;;;5080043;28;20211;-87
2022/04/13 01:54:38;;;;;;;15.70;7.53;;;16.50;20.30;;;;;;5086687;28;20271;-86
2022/04/13 01:57:04;;;;;;;17.10;7.60;;;16.50;20.30;;;;;;5090971;28;20173;-78
2022/04/13 01:59:35;;;;;;;13.20;7.67;;;16.50;19.40;;;;;;5095822;28;20180;-89
2022/04/13 02:02:04;;;;;;;12.47;7.23;;;16.40;20.70;;;;;;5080387;28;20554;-90
2022/04/13 02:04:32;;;;;;;14.47;7.33;;;16.30;22.50;;;;;;5077530;28;20251;-88
2022/04/13 02:06:59;;;;;;;15.53;7.17;;;16.20;25.60;;;;;;5078413;28;20333;-90
2022/04/13 02:09:25;;;;;;;15.93;7.63;;;15.90;31.30;;;;;;5078493;28;20208;-81
2022/04/13 02:11:52;;;;;;;19.00;7.50;;;15.80;33.60;;;;;;5078344;28;20185;-85
2022/04/13 02:14:18;;;;;;;14.43;8.13;;;15.60;37.50;;;;;;5094156;28;20187;-76
2022/04/13 02:16:45;;;;;;;14.90;7.47;;;15.50;41.60;;;;;;5092643;28;20177;-88
2022/04/13 02:19:19;;;;;;;18.80;8.30;;;15.40;43.20;;;;;;5087372;28;20188;-89
2022/04/13 02:21:46;;;;;;;16.77;7.53;;;15.50;43.90;;;;;;5078376;28;20648;-89
2022/04/13 02:24:12;;;;;;;13.43;7.77;;;15.60;41.90;;;;;;5077963;28;20172;-87
2022/04/13 02:26:37;;;;;;;16.57;8.07;;;15.70;39.20;;;;;;5079450;28;20657;-89
2022/04/13 02:29:03;;;;;;;15.63;8.13;;;15.80;38.90;;;;;;5077341;28;20176;-89
2022/04/13 02:31:29;;;;;;;18.13;8.87;;;15.80;37.50;;;;;;5089740;28;20160;-87
2022/04/13 02:33:56;;;;;;;14.03;8.50;;;15.90;35.90;;;;;;5092953;28;20152;-82
2022/04/13 02:36:22;;;;;;;14.70;8.10;;;15.80;36.80;;;;;;5091873;28;20160;-87
2022/04/13 02:38:47;;;;;;;15.80;7.93;;;15.90;37.00;;;;;;5084592;28;20325;-88
2022/04/13 02:41:13;;;;;;;17.87;8.73;;;15.90;35.70;;;;;;5080428;28;20169;-79
2022/04/13 02:43:40;;;;;;;18.83;8.13;;;15.90;36.00;;;;;;5079574;28;20167;-83
2022/04/13 02:46:06;;;;;;;21.30;8.57;;;16.00;33.10;;;;;;5076532;28;20209;-79
2022/04/13 02:48:33;;;;;;;14.27;8.10;;;15.80;34.60;;;;;;5077590;28;20651;-89
2022/04/13 02:51:00;;;;;;;13.63;7.73;;;15.70;37.50;;;;;;5080264;28;20250;-88
2022/04/13 02:53:26;;;;;;;16.77;8.43;;;15.80;36.70;;;;;;5080158;28;20172;-89
2022/04/13 02:55:53;;;;;;;15.67;7.50;;;15.70;37.10;;;;;;5077525;28;20168;-87
2022/04/13 02:58:19;;;;;;;14.43;8.10;;;15.50;42.40;;;;;;5078360;28;20648;-88
2022/04/13 03:00:44;;;;;;;15.60;8.27;;;15.40;45.50;;;;;;5077525;28;20259;-83
2022/04/13 03:03:10;;;;;;;13.93;7.90;;;15.40;46.00;;;;;;5077473;28;20164;-86
2022/04/13 03:05:37;;;;;;;16.17;8.10;;;15.40;46.50;;;;;;5078190;28;20176;-89
2022/04/13 03:08:03;;;;;;;13.93;7.93;;;15.20;48.60;;;;;;5078326;28;20203;-87
2022/04/13 03:10:29;;;;;;;13.47;8.37;;;15.10;51.70;;;;;;5078459;28;20184;-86
2022/04/13 03:12:54;;;;;;;14.03;7.57;;;15.20;52.60;;;;;;5082373;28;20202;-84
2022/04/13 03:15:22;;;;;;;12.43;7.93;;;15.10;51.90;;;;;;5098982;28;20165;-77
2022/04/13 03:17:51;;;;;;;17.17;7.97;;;15.20;51.70;;;;;;5087408;28;20183;-87
2022/04/13 03:20:18;;;;;;;12.13;7.60;;;15.30;49.00;;;;;;5080680;28;20218;-88
2022/04/13 03:22:44;;;;;;;16.70;8.27;;;15.40;47.60;;;;;;5084772;28;20187;-87
2022/04/13 03:25:09;;;;;;;12.67;7.93;;;15.40;47.70;;;;;;5093872;28;20160;-83
2022/04/13 03:27:37;;;;;;;12.77;7.90;;;15.30;48.80;;;;;;5098470;28;20196;-80
2022/04/13 03:30:05;;;;;;;13.93;8.20;;;15.20;51.60;;;;;;5096815;28;20152;-78
2022/04/13 03:32:40;;;;;;;12.77;8.07;;;15.30;51.60;;;;;;5097639;28;20180;-81
2022/04/13 03:35:08;;;;;;;12.83;7.83;;;15.40;50.50;;;;;;5098049;28;20251;-81
2022/04/13 03:37:38;;;;;;;13.77;7.90;;;15.40;49.10;;;;;;5095360;28;20173;-76
2022/04/13 03:40:07;;;;;;;11.87;7.90;;;15.50;47.40;;;;;;5098548;28;20180;-85
2022/04/13 03:42:41;;;;;;;17.13;8.17;;;15.50;45.90;;;;;;5096417;28;20168;-86
2022/04/13 03:45:26;;;;;;;15.83;8.37;;;15.60;43.30;;;;;;5089760;28;20152;-89
2022/04/13 03:47:58;;;;;;;17.47;9.73;;;15.60;44.70;;;;;;5089691;28;20199;-86
2022/04/13 03:50:23;;;;;;;17.33;9.27;;;15.60;43.90;;;;;;5097145;28;20187;-85
2022/04/13 03:52:59;;;;;;;17.13;10.20;;;15.50;45.60;;;;;;5096481;28;20162;-88
2022/04/13 03:55:29;;;;;;;20.50;10.33;;;15.40;48.40;;;;;;5094960;28;20143;-87
2022/04/13 03:57:55;;;;;;;14.67;10.20;;;15.30;50.10;;;;;;5081530;28;20157;-88
2022/04/13 04:00:20;;;;;;;16.00;9.80;;;15.30;49.00;;;;;;5080628;28;20163;-86
2022/04/13 04:02:46;;;;;;;14.50;8.90;;;15.50;47.60;;;;;;5078405;28;20163;-88
2022/04/13 04:05:15;;;;;;;17.40;9.27;;;15.30;49.60;;;;;;5076872;28;20171;-88
2022/04/13 04:07:41;;;;;;;16.53;9.00;;;15.30;50.30;;;;;;5077431;28;20208;-90
2022/04/13 04:10:07;;;;;;;13.83;8.80;;;15.30;50.10;;;;;;5088722;28;20180;-88
2022/04/13 04:12:37;;;;;;;12.93;8.90;;;15.30;51.00;;;;;;5089517;28;20172;-86
2022/04/13 04:15:05;;;;;;;16.50;8.43;;;15.30;50.10;;;;;;5095023;28;20593;-89
2022/04/13 04:17:31;;;;;;;17.73;8.80;;;15.30;50.20;;;;;;5094230;28;20214;-77
2022/04/13 04:20:04;;;;;;;16.23;8.57;;;15.30;50.50;;;;;;5090278;28;20172;-76
2022/04/13 04:22:30;;;;;;;18.70;9.60;;;15.20;51.80;;;;;;5090404;28;20153;-88
2022/04/13 04:25:47;;;;;;;14.90;8.13;;;15.10;53.10;;;;;;5078867;28;20635;-89
2022/04/13 04:28:15;;;;;;;13.57;9.13;;;15.40;49.60;;;;;;5077643;28;20203;-79
2022/04/13 04:30:42;;;;;;;14.77;9.03;;;15.50;45.80;;;;;;5083273;28;20659;-89
2022/04/13 04:33:08;;;;;;;15.10;8.70;;;15.50;46.00;;;;;;5076202;28;20251;-87
2022/04/13 04:35:35;;;;;;;15.43;9.23;;;15.30;48.10;;;;;;5077735;28;20161;-87
2022/04/13 04:38:02;;;;;;;14.50;8.40;;;15.10;52.70;;;;;;5076843;28;20183;-88
2022/04/13 04:40:28;;;;;;;15.90;9.00;;;15.10;55.00;;;;;;5078162;28;20184;-87
2022/04/13 04:42:55;;;;;;;16.40;8.87;;;15.10;55.80;;;;;;5077037;28;20171;-86
2022/04/13 04:45:21;;;;;;;17.43;9.17;;;15.00;56.20;;;;;;5089431;28;20156;-77
2022/04/13 04:47:51;;;;;;;16.43;8.47;;;15.00;56.90;;;;;;5091294;28;20223;-80
2022/04/13 04:50:21;;;;;;;15.47;8.40;;;14.90;57.80;;;;;;5078200;28;20184;-89
2022/04/13 04:52:48;;;;;;;17.27;7.97;;;14.90;59.30;;;;;;5076122;28;20219;-85
2022/04/13 04:55:16;;;;;;;15.83;8.40;;;14.90;60.00;;;;;;5075956;28;20172;-85
2022/04/13 04:57:44;;;;;;;17.20;8.73;;;14.80;60.00;;;;;;5075992;28;20249;-89
2022/04/13 05:00:12;;;;;;;15.40;8.07;;;14.90;59.80;;;;;;5076852;28;20171;-89
2022/04/13 05:02:38;;;;;;;14.77;8.67;;;14.90;60.60;;;;;;5080294;28;20322;-87
2022/04/13 05:05:05;;;;;;;17.90;8.47;;;14.90;59.80;;;;;;5076759;28;20192;-88
2022/04/13 05:07:31;;;;;;;17.63;9.27;;;14.90;59.70;;;;;;5081704;28;20207;-89
2022/04/13 05:09:58;;;;;;;16.10;8.90;;;14.90;59.70;;;;;;5080810;28;20180;-81
2022/04/13 05:12:24;;;;;;;14.63;8.70;;;14.90;60.00;;;;;;5080925;28;20220;-89
2022/04/13 05:14:54;;;;;;;19.80;8.23;;;14.90;61.80;;;;;;5082046;28;20179;-88
2022/04/13 05:17:20;;;;;;;17.93;8.70;;;15.00;60.30;;;;;;5080681;28;20168;-90
2022/04/13 05:19:46;;;;;;;19.47;8.87;;;14.90;60.40;;;;;;5080497;28;20164;-84
2022/04/13 05:22:12;;;;;;;16.47;8.87;;;15.00;60.90;;;;;;5080657;28;20180;-86
2022/04/13 05:24:38;;;;;;;18.27;8.90;;;15.00;61.40;;;;;;5081956;28;20700;-87
2022/04/13 05:27:04;;;;;;;18.90;9.27;;;15.00;60.80;;;;;;5080693;28;20667;-87
2022/04/13 05:29:30;;;;;;;13.87;8.70;;;15.20;59.00;;;;;;5080051;28;20175;-88
2022/04/13 05:31:56;;;;;;;16.23;8.83;;;15.00;58.90;;;;;;5079720;28;20176;-88
2022/04/13 05:34:21;;;;;;;15.80;9.07;;;15.20;57.50;;;;;;5079191;28;20254;-88
2022/04/13 05:36:47;;;;;;;12.43;8.13;;;15.30;57.50;;;;;;5080882;28;20160;-86
2022/04/13 05:39:13;;;;;;;15.40;9.00;;;15.40;56.10;;;;;;5090762;28;20184;-86
2022/04/13 05:41:39;;;;;;;16.70;8.63;;;15.50;54.30;;;;;;5072985;28;20248;-87
2022/04/13 05:44:05;;;;;;;16.60;8.80;;;15.40;54.00;;;;;;5097822;28;20160;-79
2022/04/13 05:46:33;;;;;;;21.40;8.87;;;15.40;54.20;;;;;;5095079;28;20196;-81
2022/04/13 05:49:01;;;;;;;20.40;9.53;;;15.40;55.20;;;;;;5089523;28;20160;-77
2022/04/13 05:51:27;;;;;;;21.07;8.47;;;15.50;54.30;;;;;;5082393;28;20188;-86
2022/04/13 05:53:54;;;;;;;17.57;8.67;;;15.70;49.70;;;;;;5085252;28;20178;-82
2022/04/13 05:56:20;;;;;;;18.93;8.67;;;15.70;49.10;;;;;;5097292;28;20220;-82
2022/04/13 05:58:51;;;;;;;22.53;9.37;;;15.60;51.10;;;;;;5096267;28;20144;-82
2022/04/13 06:01:17;;;;;;;17.07;9.03;;;15.50;54.40;;;;;;5098122;28;20152;-80
2022/04/13 06:03:44;;;;;;;18.77;8.60;;;15.50;55.90;;;;;;5095854;28;20174;-88
2022/04/13 06:06:14;;;;;;;18.17;9.43;;;15.50;56.40;;;;;;5087731;28;20191;-90
2022/04/13 06:08:42;;;;;;;18.80;9.03;;;15.70;54.10;;;;;;5087124;28;20663;-89
2022/04/13 06:11:08;;;;;;;15.43;8.17;;;15.60;54.80;;;;;;5086573;28;20218;-89
2022/04/13 06:13:36;;;;;;;20.27;9.37;;;15.60;56.90;;;;;;5086804;28;20185;-89
2022/04/13 06:16:01;;;;;;;24.07;12.10;;;15.50;58.00;;;;;;5093834;28;20144;-80
2022/04/13 06:18:31;;;;;;;19.00;9.90;;;15.50;59.10;;;;;;5098782;28;20171;-81
2022/04/13 06:21:00;;;;;;;23.67;13.90;;;15.60;59.90;;;;;;5088309;28;20201;-89
2022/04/13 06:23:26;;;;;;;22.13;8.33;;;15.60;59.70;;;;;;5086745;28;20532;-90
2022/04/13 06:25:51;;;;;;;16.83;8.90;;;15.60;59.30;;;;;;5089662;28;20156;-84
2022/04/13 06:28:20;;;;;;;14.97;8.90;;;15.60;58.60;;;;;;5083682;28;20200;-85
2022/04/13 06:30:53;;;;;;;16.33;8.47;;;15.70;58.70;;;;;;5081805;28;20176;-85
2022/04/13 06:33:22;;;;;;;13.63;8.57;;;15.60;58.10;;;;;;5085874;28;20196;-87
2022/04/13 06:35:50;;;;;;;14.87;9.00;;;15.70;57.00;;;;;;5081982;28;20189;-88
2022/04/13 06:38:17;;;;;;;18.93;8.63;;;15.80;56.40;;;;;;5080411;28;20180;-88
2022/04/13 06:40:42;;;;;;;15.07;8.33;;;15.90;55.10;;;;;;5078701;28;20180;-78
2022/04/13 06:43:08;;;;;;;18.47;8.60;;;15.90;56.20;;;;;;5097912;28;20176;-86
2022/04/13 06:45:36;;;;;;;35.97;11.27;;;15.80;57.20;;;;;;5086976;28;20167;-81
2022/04/13 06:48:03;;;;;;;19.93;8.47;;;15.70;59.90;;;;;;5099394;28;20192;-82
2022/04/13 06:51:14;;;;;;;18.13;8.27;;;15.70;60.90;;;;;;5098749;28;20642;-80
2022/04/13 06:53:59;;;;;;;15.17;8.60;;;15.90;58.30;;;;;;5096668;28;20176;-87
2022/04/13 06:56:25;;;;;;;15.23;8.17;;;15.90;56.80;;;;;;5095921;28;20156;-86
2022/04/13 06:58:52;;;;;;;17.83;9.07;;;15.70;57.30;;;;;;5085612;28;20169;-89
2022/04/13 07:01:18;;;;;;;15.73;8.53;;;15.80;58.40;;;;;;5067101;28;20206;-91
2022/04/13 07:03:47;;;;;;;14.90;8.13;;;15.90;58.40;;;;;;5067227;28;20185;-91
2022/04/13 07:06:16;;;;;;;14.97;8.67;;;15.80;59.30;;;;;;5071376;28;20161;-89
2022/04/13 07:08:41;;;;;;;20.07;9.80;;;15.60;59.40;;;;;;5068989;28;20690;-91
2022/04/13 07:11:08;;;;;;;17.63;8.37;;;15.60;62.40;;;;;;5070787;28;20175;-86
2022/04/13 07:13:35;;;;;;;15.00;8.53;;;15.50;63.20;;;;;;5082072;28;20253;-88
2022/04/13 07:16:01;;;;;;;14.33;9.10;;;15.60;62.30;;;;;;5091023;28;20174;-90
2022/04/13 07:18:27;;;;;;;13.33;8.80;;;15.50;64.60;;;;;;5082551;28;20167;-91
2022/04/13 07:20:52;;;;;;;16.17;9.73;;;15.40;66.90;;;;;;5069504;28;20173;-85
2022/04/13 07:23:18;;;;;;;19.67;9.10;;;15.20;69.60;;;;;;5067990;28;20173;-91
2022/04/13 07:25:44;;;;;;;16.67;9.27;;;15.10;71.70;;;;;;5078719;28;20167;-90
2022/04/13 07:28:10;;;;;;;13.73;9.40;;;15.20;70.80;;;;;;5060373;28;20353;-90
2022/04/13 07:30:35;;;;;;;14.40;9.23;;;15.20;70.50;;;;;;5075580;28;20173;-90
2022/04/13 07:33:02;;;;;;;13.17;9.33;;;15.20;72.40;;;;;;5058080;28;20180;-90
2022/04/13 07:35:30;;;;;;;15.57;9.43;;;15.30;72.10;;;;;;5058386;28;20209;-91
2022/04/13 07:37:56;;;;;;;17.00;9.40;;;15.30;71.30;;;;;;5065783;28;20176;-91
2022/04/13 07:40:22;;;;;;;17.87;9.67;;;15.40;72.20;;;;;;5079685;28;20168;-90
2022/04/13 07:42:48;;;;;;;15.40;8.90;;;15.40;72.50;;;;;;5084264;28;20272;-82
2022/04/13 07:45:15;;;;;;;18.30;9.33;;;15.60;69.50;;;;;;5088281;28;20164;-89
2022/04/13 07:47:42;;;;;;;12.53;9.13;;;15.50;69.40;;;;;;5080343;28;20207;-90
2022/04/13 07:50:13;;;;;;;16.00;9.37;;;15.50;68.90;;;;;;5085239;28;20263;-79
2022/04/13 07:52:40;;;;;;;13.13;8.60;;;15.60;68.40;;;;;;5095226;28;20191;-86
2022/04/13 07:55:10;;;;;;;14.03;8.87;;;15.60;68.20;;;;;;5094810;28;20171;-87
2022/04/13 07:57:39;;;;;;;15.03;8.77;;;15.70;66.20;;;;;;5094996;28;20149;-89
2022/04/13 08:00:11;;;;;;;14.93;9.43;;;15.60;65.90;;;;;;5086811;28;20157;-91
2022/04/13 08:02:38;;;;;;;14.63;9.00;;;15.60;67.00;;;;;;5076584;28;20681;-88
2022/04/13 08:05:04;;;;;;;13.13;8.87;;;15.60;67.50;;;;;;5065416;28;20173;-90
2022/04/13 08:07:31;;;;;;;16.23;9.30;;;15.60;69.30;;;;;;5080464;28;20249;-90
2022/04/13 08:09:57;;;;;;;13.63;9.00;;;15.60;69.40;;;;;;5081195;28;20165;-89
2022/04/13 08:12:31;;;;;;;14.73;9.23;;;15.80;66.30;;;;;;5082738;28;20201;-90
2022/04/13 08:14:59;;;;;;;14.23;9.47;;;15.80;58.90;;;;;;5067083;28;20185;-86
2022/04/13 08:17:26;;;;;;;18.33;9.93;;;15.80;60.50;;;;;;5069688;28;20637;-88
2022/04/13 08:19:53;;;;;;;17.50;10.13;;;15.70;67.50;;;;;;5069252;28;20172;-89
2022/04/13 08:22:23;;;;;;;17.20;9.73;;;15.70;68.60;;;;;;5064234;28;20181;-84
2022/04/13 08:24:49;;;;;;;12.70;9.03;;;15.60;72.50;;;;;;5062239;28;20259;-87
2022/04/13 08:27:16;;;;;;;12.73;9.80;;;15.60;71.80;;;;;;5089875;28;20243;-87
2022/04/13 08:29:52;;;;;;;16.40;10.27;;;15.40;73.20;;;;;;5071422;28;20164;-87
2022/04/13 08:32:21;;;;;;;16.50;10.80;;;15.50;72.70;;;;;;5085002;28;20175;-84
2022/04/13 08:34:53;;;;;;;15.53;11.20;;;15.40;75.90;;;;;;5087611;28;20172;-80
2022/04/13 08:37:23;;;;;;;15.47;9.90;;;15.30;81.30;;;;;;5085547;28;20187;-81
2022/04/13 08:39:54;;;;;;;15.50;9.63;;;15.30;84.70;;;;;;5083460;28;20236;-80
2022/04/13 08:42:49;;;;;;;17.60;9.63;;;15.60;84.30;;;;;;5068499;28;20176;-78
2022/04/13 08:45:23;;;;;;;13.77;9.47;;;15.80;83.00;;;;;;5073012;28;20189;-82
2022/04/13 08:47:59;;;;;;;15.00;10.97;;;16.00;80.70;;;;;;5085079;28;20208;-80
2022/04/13 08:50:37;;;;;;;14.37;10.63;;;16.20;80.00;;;;;;5080375;28;20150;-84
2022/04/13 08:53:05;;;;;;;15.87;10.10;;;16.30;77.10;;;;;;5056078;28;20267;-84
2022/04/13 08:56:10;;;;;;;13.47;9.03;;;16.50;73.10;;;;;;5294285;22;20224;-83
2022/04/13 08:58:51;;;;;;;12.80;9.37;;;16.60;67.20;;;;;;5076704;28;20187;-84
2022/04/13 09:01:36;;;;;;;15.80;9.87;;;16.60;63.20;;;;;;5084468;28;20172;-85
2022/04/13 09:04:10;;;;;;;17.70;9.67;;;16.60;64.00;;;;;;5094022;28;20172;-87
2022/04/13 09:06:39;;;;;;;11.53;8.67;;;16.60;64.50;;;;;;5089091;28;20230;-87
2022/04/13 09:09:49;;;;;;;13.03;9.90;;;16.60;64.30;;;;;;5087012;28;20165;-89
2022/04/13 09:12:18;;;;;;;21.43;10.73;;;16.70;63.30;;;;;;5027706;28;20230;-83
2022/04/13 09:14:45;;;;;;;13.13;9.53;;;16.70;63.40;;;;;;5044853;28;20185;-80
2022/04/13 09:17:12;;;;;;;14.67;10.27;;;16.50;61.70;;;;;;5061876;28;20241;-80
2022/04/13 09:19:38;;;;;;;13.83;10.33;;;16.30;68.20;;;;;;5076752;28;20177;-82
2022/04/13 09:22:10;;;;;;;17.13;11.10;;;16.10;73.80;;;;;;5067791;28;20165;-83
2022/04/13 09:24:37;;;;;;;13.73;10.50;;;16.00;77.80;;;;;;5058861;28;20182;-82
2022/04/13 09:27:03;;;;;;;16.77;10.73;;;16.00;81.20;;;;;;5063151;28;20239;-82
2022/04/13 09:29:29;;;;;;;16.80;11.30;;;16.10;80.90;;;;;;5063869;28;20171;-82
2022/04/13 09:31:55;;;;;;;17.43;10.90;;;16.30;78.80;;;;;;5063445;28;20221;-82
2022/04/13 09:34:21;;;;;;;14.47;10.37;;;16.40;77.30;;;;;;5070804;28;20223;-82
2022/04/13 09:36:47;;;;;;;14.20;10.67;;;16.50;75.80;;;;;;5075210;28;20173;-82
2022/04/13 09:39:15;;;;;;;17.77;11.50;;;16.50;68.90;;;;;;5075252;28;20169;-83
2022/04/13 09:41:41;;;;;;;15.73;12.33;;;16.40;70.40;;;;;;5069036;28;20275;-82
2022/04/13 09:44:14;;;;;;;15.30;11.23;;;16.40;74.90;;;;;;5070727;28;20181;-82
2022/04/13 09:46:41;;;;;;;15.80;11.83;;;16.70;74.00;;;;;;5070919;28;20197;-82
2022/04/13 09:49:12;;;;;;;20.30;12.13;;;16.50;70.00;;;;;;5066098;28;20196;-81
2022/04/13 09:51:39;;;;;;;20.17;12.27;;;16.70;69.80;;;;;;5066557;28;20162;-82
2022/04/13 09:54:11;;;;;;;15.33;10.57;;;16.70;69.00;;;;;;5065413;28;20551;-82
2022/04/13 09:56:38;;;;;;;22.30;15.63;;;16.70;66.50;;;;;;5067915;28;20196;-82
2022/04/13 09:59:05;;;;;;;19.57;12.57;;;16.70;67.60;;;;;;5053459;28;20185;-82
2022/04/13 10:01:34;;;;;;;18.63;11.87;;;16.40;74.50;;;;;;5062067;28;20173;-81
2022/04/13 10:04:01;;;;;;;17.37;12.03;;;16.40;79.20;;;;;;5060695;28;20177;-84
2022/04/13 10:06:33;;;;;;;15.97;11.73;;;16.30;81.10;;;;;;5061164;28;20187;-82
2022/04/13 10:09:08;;;;;;;15.63;11.03;;;16.30;80.70;;;;;;5056685;28;20268;-82
2022/04/13 10:11:35;;;;;;;16.00;11.13;;;16.40;80.60;;;;;;5060982;28;20161;-82
2022/04/13 10:14:04;;;;;;;15.47;11.53;;;16.30;81.10;;;;;;5059890;28;20173;-82
2022/04/13 10:16:43;;;;;;;13.90;10.40;;;16.30;78.30;;;;;;5062898;28;20177;-83
2022/04/13 10:19:19;;;;;;;15.33;11.37;;;16.30;77.50;;;;;;5062621;28;20229;-82
2022/04/13 10:21:52;;;;;;;17.30;12.20;;;16.20;78.60;;;;;;5068208;28;20176;-84
2022/04/13 10:24:46;;;;;;;18.30;12.50;;;15.90;83.90;;;;;;5061717;28;20259;-83
2022/04/13 10:27:20;;;;;;;18.90;12.67;;;15.70;90.00;;;;;;5062026;28;20232;-83
2022/04/13 10:29:47;;;;;;;18.70;12.53;;;15.70;91.10;;;;;;5059636;28;20171;-83
2022/04/13 10:32:22;;;;;;;15.73;12.00;;;15.60;91.20;;;;;;5063212;28;20157;-84
2022/04/13 10:34:50;;;;;;;15.70;12.60;;;15.50;92.00;;;;;;5060433;28;20164;-83
2022/04/13 10:37:21;;;;;;;16.97;12.97;;;15.50;91.10;;;;;;5062051;28;20532;-82
2022/04/13 10:39:48;;;;;;;16.53;12.83;;;15.60;91.70;;;;;;5061091;28;20187;-83
2022/04/13 10:42:17;;;;;;;16.63;12.80;;;15.60;93.00;;;;;;5056276;28;20172;-82
2022/04/13 10:44:58;;;;;;;16.60;13.50;;;15.60;92.80;;;;;;5055912;28;20184;-83
2022/04/13 10:47:47;;;;;;;19.43;14.30;;;15.60;93.10;;;;;;5055607;28;20203;-83
2022/04/13 10:50:14;;;;;;;16.83;13.10;;;15.70;92.80;;;;;;5055316;28;20186;-83
2022/04/13 10:52:57;;;;;;;17.47;13.27;;;15.50;92.60;;;;;;5055790;28;20179;-82
2022/04/13 10:55:23;;;;;;;19.23;14.13;;;15.40;94.70;;;;;;5055671;28;20267;-82
2022/04/13 10:58:46;;;;;;;21.63;14.60;;;15.50;94.50;;;;;;5055856;28;20191;-82
2022/04/13 11:01:15;;;;;;;20.03;14.97;;;15.40;94.90;;;;;;5014457;28;20172;-81
2022/04/13 11:03:42;;;;;;;20.63;15.43;;;15.50;95.50;;;;;;5053455;28;20572;-81
2022/04/13 11:06:09;;;;;;;18.57;14.53;;;15.50;96.10;;;;;;5040212;28;20185;-83
2022/04/13 11:08:57;;;;;;;18.47;15.07;;;15.50;96.50;;;;;;5056267;28;20201;-83
2022/04/13 11:11:26;;;;;;;17.10;14.47;;;15.50;97.10;;;;;;5058027;28;20172;-83
2022/04/13 11:13:52;;;;;;;15.57;13.40;;;15.60;97.10;;;;;;5057286;28;20223;-83
2022/04/13 11:16:20;;;;;;;18.07;13.87;;;15.70;97.00;;;;;;5057920;28;20179;-83
2022/04/13 11:19:06;;;;;;;15.93;13.37;;;15.80;96.30;;;;;;5060741;28;20169;-82
2022/04/13 11:21:34;;;;;;;17.80;14.03;;;15.90;96.00;;;;;;5063314;28;20165;-83
2022/04/13 11:24:00;;;;;;;16.47;12.30;;;15.80;95.80;;;;;;5066788;28;20161;-82
2022/04/13 11:26:38;;;;;;;15.33;12.50;;;15.70;95.60;;;;;;5076339;28;20219;-84
2022/04/13 11:29:18;;;;;;;15.17;12.03;;;15.80;95.90;;;;;;5072192;28;20173;-82
2022/04/13 11:32:10;;;;;;;14.63;11.90;;;16.00;95.80;;;;;;5063942;28;20601;-81
2022/04/13 11:34:44;;;;;;;16.90;12.60;;;16.20;94.30;;;;;;5064727;28;20232;-82
2022/04/13 11:37:12;;;;;;;16.57;11.60;;;16.30;92.20;;;;;;5056798;28;20169;-84
2022/04/13 11:39:56;;;;;;;16.53;12.67;;;16.40;89.30;;;;;;5056373;28;20205;-84
2022/04/13 11:42:25;;;;;;;16.30;13.27;;;16.60;86.00;;;;;;5056807;28;20177;-83
2022/04/13 11:45:12;;;;;;;14.93;13.27;;;16.70;83.00;;;;;;5056945;28;20199;-84
2022/04/13 11:47:44;;;;;;;18.67;13.43;;;16.80;78.70;;;;;;5055294;28;20214;-84
2022/04/13 11:50:14;;;;;;;17.73;12.77;;;16.80;75.60;;;;;;5056983;28;20634;-83
2022/04/13 11:52:58;;;;;;;15.70;12.67;;;16.60;79.70;;;;;;5054430;28;20236;-82
2022/04/13 11:55:39;;;;;;;15.87;11.47;;;16.60;83.20;;;;;;5056156;28;20264;-83
2022/04/13 11:58:07;;;;;;;15.83;12.07;;;16.70;82.00;;;;;;5054445;28;20181;-83
2022/04/13 12:00:50;;;;;;;17.53;11.63;;;16.60;80.10;;;;;;5057535;28;20177;-82
2022/04/13 12:03:40;;;;;;;16.07;10.53;;;16.40;82.20;;;;;;5060099;28;20205;-84
2022/04/13 12:06:16;;;;;;;16.03;11.60;;;16.30;86.70;;;;;;5060147;28;20197;-84
2022/04/13 12:08:53;;;;;;;14.97;11.13;;;16.40;88.70;;;;;;5064913;28;20267;-84
2022/04/13 12:11:46;;;;;;;17.93;11.00;;;16.50;87.00;;;;;;5068729;28;20641;-84
2022/04/13 12:14:26;;;;;;;15.30;11.80;;;16.60;78.00;;;;;;5067604;28;20183;-81
2022/04/13 12:17:05;;;;;;;17.23;12.77;;;16.60;72.90;;;;;;5058137;28;20176;-81
2022/04/13 12:19:42;;;;;;;18.40;12.77;;;16.40;75.60;;;;;;5080596;28;20217;-81
2022/04/13 12:22:18;;;;;;;17.93;12.93;;;16.10;86.70;;;;;;5060941;28;20188;-82
2022/04/13 12:25:03;;;;;;;18.40;13.60;;;16.00;85.50;;;;;;5074924;28;20183;-82
2022/04/13 12:27:28;;;;;;;17.53;13.33;;;16.00;86.60;;;;;;5063407;28;20200;-83
2022/04/13 12:30:11;;;;;;;20.67;14.63;;;15.90;89.70;;;;;;5069796;28;20228;-81
2022/04/13 12:32:47;;;;;;;22.33;15.60;;;15.90;90.90;;;;;;5065324;28;20214;-84
2022/04/13 12:35:15;;;;;;;18.53;15.37;;;15.80;90.90;;;;;;5050917;28;20215;-82
2022/04/13 12:37:54;;;;;;;20.17;15.53;;;15.70;92.80;;;;;;5064722;28;20161;-83
2022/04/13 12:40:28;;;;;;;20.77;15.80;;;15.60;94.60;;;;;;5067572;28;20171;-82
2022/04/13 12:42:55;;;;;;;19.23;15.53;;;15.60;94.60;;;;;;5065000;28;20174;-84
2022/04/13 12:45:30;;;;;;;22.03;16.63;;;15.60;94.60;;;;;;5062934;28;20238;-83
2022/04/13 12:47:57;;;;;;;18.60;15.30;;;15.60;94.50;;;;;;5064476;28;20218;-83
2022/04/13 12:50:23;;;;;;;21.97;14.30;;;15.50;95.80;;;;;;5063223;28;20175;-83